Time;durP1;ratioP1;P1;durP2;ratioP2;P2;SDS_P1;SDS_P2;PMS_P1;PMS_P2;Temp;Humidity;BMP_temperature;BMP_pressure;BME280_temperature;BME280_humidity;BME280_pressure;Samples;Min_cycle;Max_cycle;Signal;HPM_P1;HPM_P2
2023/10/05 00:00:48;;;;;;;18.13;4.38;;;;;;;22.14;68.04;99497.16;4891231;29;20499;-79
2023/10/05 00:03:32;;;;;;;12.57;4.00;;;;;;;22.34;67.62;99499.09;4889467;29;20092;-81
2023/10/05 00:06:23;;;;;;;15.50;4.38;;;;;;;22.55;67.22;99499.19;4902712;29;20591;-82
2023/10/05 00:09:11;;;;;;;13.95;4.10;;;;;;;22.19;67.41;99504.38;4903766;29;20530;-81
2023/10/05 00:11:55;;;;;;;13.75;4.03;;;;;;;22.35;67.75;99502.59;4909431;29;20107;-81
2023/10/05 00:14:40;;;;;;;14.23;4.10;;;;;;;22.22;67.50;99490.50;4903150;29;20054;-81
2023/10/05 00:17:25;;;;;;;15.02;4.28;;;;;;;21.83;68.67;99492.44;4888603;29;20067;-80
2023/10/05 00:20:32;;;;;;;19.30;3.50;;;;;;;22.44;67.28;99482.28;4909686;29;20079;-81
2023/10/05 00:23:19;;;;;;;19.90;4.00;;;;;;;22.25;67.67;99490.78;4896798;29;20422;-80
2023/10/05 00:26:06;;;;;;;18.92;4.35;;;;;;;21.91;68.20;99495.69;4894931;29;20047;-81
2023/10/05 00:31:58;;;;;;;12.48;3.53;;;;;;;22.56;66.65;99482.09;4907800;29;20487;-80
2023/10/05 00:34:44;;;;;;;12.65;3.60;;;;;;;22.29;67.08;99480.38;4894423;29;20127;-81
2023/10/05 00:37:28;;;;;;;15.38;4.15;;;;;;;22.41;67.35;99488.16;4907225;29;20047;-82
2023/10/05 00:43:23;;;;;;;18.25;4.13;;;;;;;22.33;67.28;99484.13;4905573;29;20047;-81
2023/10/05 00:46:09;;;;;;;17.52;4.85;;;;;;;22.80;66.23;99484.28;4898623;29;20390;-81
2023/10/05 00:52:30;;;;;;;14.55;4.63;;;;;;;22.67;66.48;99489.06;4906457;29;20312;-81
2023/10/05 00:55:11;;;;;;;12.25;3.80;;;;;;;23.01;65.92;99497.72;4903339;29;20544;-81
2023/10/05 00:57:56;;;;;;;11.65;3.58;;;;;;;23.02;65.65;99491.28;4906942;29;20042;-81
2023/10/05 01:00:53;;;;;;;11.82;3.55;;;;;;;22.85;66.00;99484.31;4908830;29;20051;-81
2023/10/05 01:03:47;;;;;;;11.82;3.47;;;;;;;22.88;65.81;99478.41;4911460;29;20181;-80
2023/10/05 01:06:54;;;;;;;11.85;3.50;;;;;;;23.11;65.31;99481.63;4912015;29;20404;-80
2023/10/05 01:09:56;;;;;;;9.40;3.47;;;;;;;22.46;66.68;99496.19;4908140;29;20590;-80
2023/10/05 01:12:44;;;;;;;17.60;4.63;;;;;;;22.59;67.02;99499.50;4893745;29;20058;-80
2023/10/05 01:15:33;;;;;;;15.52;4.88;;;;;;;22.70;66.54;99494.97;4910697;29;20059;-80
2023/10/05 01:18:17;;;;;;;17.38;4.40;;;;;;;22.46;67.21;99503.44;4903604;29;20047;-80
2023/10/05 01:21:03;;;;;;;11.13;3.83;;;;;;;22.76;66.27;99501.94;4895804;29;20119;-78
2023/10/05 01:23:48;;;;;;;14.90;4.00;;;;;;;23.03;66.15;99501.72;4909343;29;20108;-79
2023/10/05 01:26:34;;;;;;;14.02;4.20;;;;;;;23.16;65.76;99508.41;4906668;29;20043;-79
2023/10/05 01:29:18;;;;;;;17.95;4.28;;;;;;;22.76;66.53;99502.75;4904743;29;20111;-79
2023/10/05 01:32:02;;;;;;;16.48;4.82;;;;;;;22.80;66.09;99503.03;4905550;29;20169;-79
2023/10/05 01:34:49;;;;;;;16.23;4.95;;;;;;;22.59;66.87;99507.50;4895908;29;20051;-80
2023/10/05 01:37:36;;;;;;;12.43;4.13;;;;;;;22.62;66.55;99489.06;4894934;29;20124;-79
2023/10/05 01:43:05;;;;;;;14.27;3.75;;;;;;;22.33;67.51;99484.13;4905201;29;20104;-80
2023/10/05 01:45:50;;;;;;;13.45;3.95;;;;;;;22.53;66.76;99475.41;4906765;29;20039;-80
2023/10/05 01:48:34;;;;;;;9.45;3.70;;;;;;;22.79;66.57;99486.16;4909676;29;20083;-80
2023/10/05 01:51:26;;;;;;;9.85;3.53;;;;;;;22.75;66.60;99478.91;4890639;29;20052;-79
2023/10/05 01:54:15;;;;;;;9.60;3.65;;;;;;;22.65;66.93;99485.88;4892396;29;20132;-79
2023/10/05 01:57:02;;;;;;;10.55;2.97;;;;;;;22.44;67.16;99468.91;4907330;29;20139;-79
2023/10/05 01:59:46;;;;;;;15.57;3.25;;;;;;;22.63;66.86;99476.47;4909177;29;20232;-79
2023/10/05 02:02:31;;;;;;;11.27;3.75;;;;;;;22.01;68.09;99481.56;4889397;29;20114;-80
2023/10/05 02:05:19;;;;;;;10.13;3.53;;;;;;;22.39;67.44;99477.72;4892088;29;20091;-79
2023/10/05 02:08:04;;;;;;;16.48;4.00;;;;;;;22.42;67.43;99470.25;4892013;29;20048;-78
2023/10/05 02:10:50;;;;;;;14.88;3.80;;;;;;;22.42;67.40;99460.34;4903808;29;20111;-81
2023/10/05 02:13:35;;;;;;;14.00;3.97;;;;;;;22.52;67.25;99467.63;4907319;29;20066;-79
2023/10/05 02:16:21;;;;;;;13.02;3.55;;;;;;;22.46;67.65;99484.72;4903674;29;20112;-81
2023/10/05 02:19:07;;;;;;;14.90;3.47;;;;;;;22.58;67.47;99471.91;4893098;29;20052;-80
2023/10/05 02:21:54;;;;;;;10.77;3.63;;;;;;;22.59;67.38;99467.38;4905649;29;20111;-79
2023/10/05 02:24:40;;;;;;;11.18;3.42;;;;;;;22.59;67.71;99460.16;4892693;29;20043;-80
2023/10/05 02:27:28;;;;;;;10.07;3.85;;;;;;;22.39;67.52;99464.34;4893853;29;20107;-81
2023/10/05 02:30:14;;;;;;;9.55;3.10;;;;;;;22.95;66.91;99465.56;4904730;29;20112;-80
2023/10/05 02:32:59;;;;;;;15.70;4.00;;;;;;;22.49;67.63;99455.56;4907228;29;20104;-80
2023/10/05 02:35:48;;;;;;;9.52;3.75;;;;;;;22.86;67.23;99464.50;4907421;29;20124;-80
2023/10/05 02:38:32;;;;;;;12.10;3.20;;;;;;;22.81;67.14;99467.16;4903601;29;20517;-79
2023/10/05 02:41:23;;;;;;;12.35;4.05;;;;;;;22.86;67.52;99469.03;4908237;29;20047;-80
2023/10/05 02:44:17;;;;;;;11.43;3.53;;;;;;;22.75;66.99;99462.84;4891193;29;20046;-79
2023/10/05 02:47:08;;;;;;;8.88;3.25;;;;;;;23.01;67.08;99468.25;4907411;29;20038;-79
2023/10/05 02:49:52;;;;;;;9.82;3.90;;;;;;;22.88;67.15;99457.00;4890548;29;20128;-79
2023/10/05 02:52:38;;;;;;;11.93;3.60;;;;;;;22.77;67.66;99464.22;4894305;29;20092;-79
2023/10/05 02:55:23;;;;;;;11.80;3.58;;;;;;;22.66;67.97;99466.06;4908280;29;20059;-80
2023/10/05 02:58:07;;;;;;;10.15;3.63;;;;;;;22.66;68.00;99463.38;4898356;29;20463;-80
2023/10/05 03:00:51;;;;;;;12.48;3.88;;;;;;;22.96;67.44;99463.69;4910169;29;20078;-79
2023/10/05 03:03:36;;;;;;;10.40;3.40;;;;;;;22.89;67.80;99466.63;4910109;29;20122;-80
2023/10/05 03:06:23;;;;;;;16.98;3.90;;;;;;;22.60;68.52;99467.13;4911635;29;20072;-79
2023/10/05 03:09:08;;;;;;;10.73;3.38;;;;;;;22.95;67.65;99478.16;4904540;29;20145;-79
2023/10/05 03:11:54;;;;;;;10.13;3.78;;;;;;;23.37;66.96;99478.97;4909567;29;20058;-79
2023/10/05 03:14:43;;;;;;;9.50;3.63;;;;;;;23.15;66.99;99471.22;4903495;29;20155;-81
2023/10/05 03:17:27;;;;;;;11.27;3.72;;;;;;;23.27;67.23;99479.00;4902781;29;20087;-80
2023/10/05 03:20:16;;;;;;;12.13;3.67;;;;;;;23.19;67.34;99486.47;4911531;29;20087;-79
2023/10/05 03:23:00;;;;;;;10.85;3.35;;;;;;;23.36;67.06;99488.09;4896703;29;20043;-80
2023/10/05 03:25:47;;;;;;;17.23;3.80;;;;;;;22.97;67.89;99492.06;4904045;29;20088;-80
2023/10/05 03:28:34;;;;;;;13.57;3.20;;;;;;;23.02;67.77;99473.34;4904651;29;20052;-81
2023/10/05 03:31:25;;;;;;;9.93;3.08;;;;;;;22.66;68.03;99487.47;4908117;29;20055;-80
2023/10/05 03:34:09;;;;;;;5.32;3.15;;;;;;;23.04;67.74;99486.47;4905174;29;20047;-80
2023/10/05 03:36:54;;;;;;;11.68;3.60;;;;;;;23.21;67.67;99502.25;4904708;29;20096;-80
2023/10/05 03:40:07;;;;;;;11.63;3.97;;;;;;;23.19;67.78;99505.22;4895317;29;20513;-80
2023/10/05 03:42:57;;;;;;;13.60;3.92;;;;;;;23.15;68.08;99509.47;4901876;29;20048;-80
2023/10/05 03:45:41;;;;;;;7.65;3.38;;;;;;;23.46;67.38;99504.19;4906211;29;20455;-80
2023/10/05 03:48:26;;;;;;;13.45;3.55;;;;;;;23.47;67.37;99507.63;4897837;29;20067;-80
2023/10/05 03:51:18;;;;;;;13.82;3.80;;;;;;;23.48;67.53;99502.03;4889732;29;20038;-81
2023/10/05 03:54:02;;;;;;;10.57;3.35;;;;;;;23.32;67.43;99503.09;4892471;29;20051;-80
2023/10/05 03:56:50;;;;;;;10.85;3.83;;;;;;;23.22;68.07;99510.03;4906347;29;20047;-80
2023/10/05 03:59:34;;;;;;;12.38;3.47;;;;;;;23.33;67.97;99515.41;4908205;29;20062;-81
2023/10/05 04:02:18;;;;;;;8.77;3.22;;;;;;;23.38;67.81;99512.72;4894768;29;20048;-80
2023/10/05 04:05:04;;;;;;;12.80;3.72;;;;;;;23.57;67.48;99513.00;4913285;29;20148;-80
2023/10/05 04:07:50;;;;;;;10.65;4.55;;;;;;;23.49;67.79;99509.00;4908096;29;20122;-80
2023/10/05 04:10:45;;;;;;;11.40;3.92;;;;;;;23.47;67.76;99515.69;4915036;29;20162;-80
2023/10/05 04:13:32;;;;;;;12.35;4.03;;;;;;;23.64;67.70;99518.09;4900315;29;20131;-81
2023/10/05 04:16:26;;;;;;;12.07;3.38;;;;;;;23.68;67.85;99516.47;4911227;29;20079;-80
2023/10/05 04:19:11;;;;;;;;;;;;;;;23.84;67.28;99517.25;4912058;29;20119;-79
2023/10/05 04:21:56;;;;;;;8.98;3.90;;;;;;;23.61;67.93;99513.28;4910945;29;19973;-80
2023/10/05 04:24:41;;;;;;;7.03;3.88;;;;;;;23.76;67.37;99513.22;4907783;29;20772;-80
2023/10/05 04:27:25;;;;;;;13.25;4.72;;;;;;;23.61;67.71;99511.38;4896703;29;20036;-78
2023/10/05 04:30:13;;;;;;;16.67;4.35;;;;;;;23.62;67.63;99517.56;4913372;29;20131;-81
2023/10/05 04:32:57;;;;;;;11.77;4.38;;;;;;;23.58;67.43;99509.25;4906683;29;20120;-80
2023/10/05 04:35:45;;;;;;;11.75;3.67;;;;;;;23.40;68.26;99515.97;4910685;29;20455;-80
2023/10/05 04:38:29;;;;;;;12.02;4.28;;;;;;;23.76;67.44;99515.91;4901162;29;20055;-80
2023/10/05 04:41:13;;;;;;;8.35;4.20;;;;;;;23.68;67.80;99517.28;4909574;29;20123;-81
2023/10/05 04:44:00;;;;;;;12.95;4.05;;;;;;;23.47;67.85;99505.78;4892398;29;20051;-81
2023/10/05 04:46:48;;;;;;;11.88;4.10;;;;;;;23.41;67.86;99512.22;4907654;29;20169;-81
2023/10/05 04:49:35;;;;;;;10.13;3.70;;;;;;;23.48;68.25;99518.09;4898034;29;20108;-80
2023/10/05 04:52:23;;;;;;;8.35;3.90;;;;;;;23.36;68.45;99513.00;4898140;29;20105;-79
2023/10/05 04:55:18;;;;;;;13.73;3.90;;;;;;;23.48;68.23;99512.75;4910999;29;20458;-79
2023/10/05 04:58:17;;;;;;;10.63;3.85;;;;;;;23.36;68.55;99509.53;4897729;29;20051;-80
2023/10/05 05:01:15;;;;;;;10.70;3.72;;;;;;;23.47;68.16;99521.84;4909237;29;20046;-80
2023/10/05 05:07:06;;;;;;;14.65;4.38;;;;;;;23.12;69.11;99518.06;4908740;29;20598;-81
2023/10/05 05:09:52;;;;;;;10.70;4.28;;;;;;;23.31;68.81;99523.72;4896613;29;20407;-80
2023/10/05 05:12:38;;;;;;;11.40;3.70;;;;;;;23.37;68.92;99536.06;4894476;29;20593;-81
2023/10/05 05:15:23;;;;;;;11.05;4.30;;;;;;;23.40;68.89;99515.97;4898853;29;20047;-81
2023/10/05 05:18:14;;;;;;;10.13;3.20;;;;;;;23.45;68.96;99524.00;4908585;29;20051;-80
2023/10/05 05:20:58;;;;;;;8.50;3.17;;;;;;;23.41;68.91;99522.94;4905645;29;20042;-79
2023/10/05 05:23:43;;;;;;;8.63;3.78;;;;;;;23.32;69.42;99519.97;4905999;29;20124;-82
2023/10/05 05:26:27;;;;;;;10.15;3.72;;;;;;;23.48;69.00;99526.13;4909181;29;20055;-81
2023/10/05 05:29:11;;;;;;;11.90;3.85;;;;;;;23.28;68.99;99518.09;4893460;29;20097;-80
2023/10/05 05:31:54;;;;;;;;;;;;;;;23.28;69.33;99528.81;4910761;29;20051;-80
2023/10/05 05:34:42;;;;;;;10.55;4.38;;;;;;;22.93;69.92;99529.28;4912303;29;20265;-80
2023/10/05 05:40:12;;;;;;;7.72;3.88;;;;;;;23.02;69.99;99520.72;4900740;29;20079;-79
2023/10/05 05:42:57;;;;;;;13.63;4.50;;;;;;;23.10;69.58;99530.91;4909374;29;20087;-80
2023/10/05 05:45:44;;;;;;;13.52;4.72;;;;;;;23.13;69.53;99530.38;4907676;29;20403;-80
2023/10/05 05:48:31;;;;;;;10.27;4.32;;;;;;;23.11;69.68;99522.63;4897807;29;20059;-81
2023/10/05 05:51:15;;;;;;;12.52;4.40;;;;;;;23.26;69.60;99531.75;4905236;29;20062;-81
2023/10/05 05:54:00;;;;;;;8.90;4.15;;;;;;;23.10;70.05;99517.53;4906553;29;20047;-80
2023/10/05 05:56:45;;;;;;;11.88;4.40;;;;;;;23.02;70.56;99512.69;4906412;29;20047;-80
2023/10/05 05:59:29;;;;;;;9.27;4.32;;;;;;;22.95;70.93;99521.78;4904487;29;20209;-79
2023/10/05 06:02:13;;;;;;;14.30;7.15;;;;;;;22.94;71.56;99512.13;4892794;29;20115;-79
2023/10/05 06:04:59;;;;;;;12.85;7.43;;;;;;;23.14;71.07;99517.81;4904343;29;20051;-79
2023/10/05 06:07:43;;;;;;;17.88;10.30;;;;;;;23.03;72.72;99517.78;4905573;29;20055;-79
2023/10/05 06:10:28;;;;;;;15.77;9.25;;;;;;;23.00;72.21;99512.94;4903052;29;20071;-80
2023/10/05 06:13:13;;;;;;;12.10;6.70;;;;;;;23.06;71.76;99516.44;4907488;29;20067;-81
2023/10/05 06:15:56;;;;;;;13.75;5.13;;;;;;;23.17;71.59;99526.09;4905765;29;20419;-79
2023/10/05 06:18:41;;;;;;;12.40;5.55;;;;;;;22.92;71.74;99527.66;4906660;29;20458;-79
2023/10/05 06:21:26;;;;;;;11.88;5.07;;;;;;;23.08;71.26;99525.81;4902153;29;20048;-77
2023/10/05 06:24:10;;;;;;;11.25;5.45;;;;;;;22.99;71.79;99522.06;4891493;29;20103;-78
2023/10/05 06:26:54;;;;;;;9.45;5.50;;;;;;;23.08;71.46;99525.81;4894840;29;20092;-77
2023/10/05 06:29:38;;;;;;;10.38;4.90;;;;;;;23.09;71.49;99527.44;4904951;29;20051;-78
2023/10/05 06:32:22;;;;;;;11.10;5.07;;;;;;;22.94;71.48;99533.56;4903175;29;20068;-78
2023/10/05 06:35:11;;;;;;;8.55;4.63;;;;;;;22.86;71.47;99512.66;4907664;29;20194;-78
2023/10/05 06:37:55;;;;;;;13.40;4.68;;;;;;;23.22;71.22;99530.66;4909547;29;20047;-79
2023/10/05 06:40:40;;;;;;;13.07;5.07;;;;;;;23.32;70.81;99532.56;4907062;29;20558;-79
2023/10/05 06:43:26;;;;;;;11.43;5.28;;;;;;;23.13;70.73;99524.22;4907399;29;20043;-80
2023/10/05 06:46:14;;;;;;;9.63;4.22;;;;;;;23.17;71.14;99528.75;4906850;29;20402;-80
2023/10/05 06:48:58;;;;;;;13.05;4.72;;;;;;;23.15;70.96;99528.22;4887210;29;20047;-79
2023/10/05 06:51:45;;;;;;;9.48;4.50;;;;;;;22.81;71.62;99526.84;4903085;29;20577;-80
2023/10/05 06:54:30;;;;;;;9.35;4.82;;;;;;;23.00;71.66;99531.69;4896254;29;20561;-78
2023/10/05 06:57:14;;;;;;;9.40;5.00;;;;;;;22.97;71.66;99532.22;4905367;29;20092;-81
2023/10/05 06:59:58;;;;;;;10.35;4.10;;;;;;;23.23;71.08;99543.78;4890761;29;20055;-78
2023/10/05 07:02:46;;;;;;;10.05;4.10;;;;;;;23.10;71.29;99542.44;4901561;29;20431;-80
2023/10/05 07:05:32;;;;;;;9.18;4.50;;;;;;;22.95;71.56;99531.69;4899267;29;20052;-81
2023/10/05 07:08:16;;;;;;;10.38;4.13;;;;;;;22.80;71.86;99535.16;4908980;29;20406;-84
2023/10/05 07:11:00;;;;;;;5.97;4.05;;;;;;;22.62;72.48;99539.91;4896905;29;20410;-80
2023/10/05 07:13:46;;;;;;;6.50;4.10;;;;;;;22.85;71.91;99559.25;4903036;29;20116;-83
2023/10/05 07:16:30;;;;;;;8.63;4.05;;;;;;;22.97;71.45;99545.63;4902910;29;20424;-82
2023/10/05 07:19:14;;;;;;;8.20;3.50;;;;;;;23.00;71.37;99558.47;4901933;29;20047;-82
2023/10/05 07:22:02;;;;;;;5.95;3.20;;;;;;;23.03;71.68;99555.25;4900785;29;20047;-81
2023/10/05 07:24:45;;;;;;;8.25;3.65;;;;;;;23.29;71.25;99558.03;4888492;29;20102;-82
2023/10/05 07:27:29;;;;;;;6.55;3.70;;;;;;;23.48;70.75;99558.28;4887272;29;20398;-81
2023/10/05 07:30:14;;;;;;;9.98;4.05;;;;;;;23.23;71.64;99559.03;4886999;29;20092;-81
2023/10/05 07:32:59;;;;;;;6.15;4.35;;;;;;;23.25;71.32;99567.59;4888960;29;20104;-83
2023/10/05 07:35:43;;;;;;;11.52;4.30;;;;;;;23.16;71.55;99570.00;4896171;29;20044;-83
2023/10/05 07:38:27;;;;;;;6.57;3.50;;;;;;;23.75;70.64;99573.28;4888719;29;20051;-81
2023/10/05 07:41:11;;;;;;;8.15;4.20;;;;;;;23.51;70.45;99555.06;4907570;29;20039;-81
2023/10/05 07:43:55;;;;;;;6.97;3.70;;;;;;;23.78;69.93;99567.41;4894220;29;20386;-82
2023/10/05 07:46:39;;;;;;;8.77;4.00;;;;;;;23.54;70.31;99575.97;4901164;29;20044;-82
2023/10/05 07:49:24;;;;;;;7.55;4.25;;;;;;;23.78;70.21;99580.81;4902686;29;20091;-81
2023/10/05 07:52:12;;;;;;;7.40;4.28;;;;;;;23.98;70.05;99584.53;4903186;29;20112;-80
2023/10/05 07:54:57;;;;;;;8.27;3.67;;;;;;;23.81;69.65;99569.53;4884773;29;20077;-81
2023/10/05 07:57:42;;;;;;;8.95;3.17;;;;;;;23.49;70.17;99578.66;4905651;29;20039;-82
2023/10/05 08:00:26;;;;;;;9.98;3.38;;;;;;;24.10;69.57;99582.38;4899366;29;20111;-80
2023/10/05 08:03:10;;;;;;;7.30;3.42;;;;;;;23.66;69.87;99542.75;4900598;29;20055;-83
2023/10/05 08:05:54;;;;;;;6.47;3.13;;;;;;;24.43;69.00;99573.97;4888882;29;20092;-82
2023/10/05 08:08:40;;;;;;;6.97;3.63;;;;;;;23.84;69.88;99591.50;4881141;29;20079;-83
2023/10/05 08:11:25;;;;;;;4.57;3.08;;;;;;;24.15;69.29;99584.25;4893767;29;20055;-82
2023/10/05 08:14:09;;;;;;;6.63;3.25;;;;;;;24.02;68.85;99568.72;4900402;29;20050;-82
2023/10/05 08:16:57;;;;;;;5.25;3.08;;;;;;;24.31;69.18;99570.81;4902157;29;20079;-82
2023/10/05 08:19:41;;;;;;;9.27;3.67;;;;;;;24.51;68.55;99591.38;4886191;29;20066;-81
2023/10/05 08:22:26;;;;;;;4.60;2.97;;;;;;;24.36;68.57;99590.34;4902733;29;20426;-82
2023/10/05 08:25:12;;;;;;;4.63;2.80;;;;;;;24.39;68.15;99587.16;4887459;29;20052;-82
2023/10/05 08:27:57;;;;;;;6.97;3.15;;;;;;;24.66;67.35;99571.72;4900765;29;20124;-81
2023/10/05 08:31:26;;;;;;;5.95;3.60;;;;;;;24.36;68.29;99582.31;4907132;29;20075;-82
2023/10/05 08:33:45;;;;;;;7.95;3.78;;;;;;;24.48;67.86;99581.19;4900321;29;20047;-83
2023/10/05 08:36:31;;;;;;;6.85;3.28;;;;;;;25.19;67.09;99581.97;4891173;29;20047;-85
2023/10/05 08:39:16;;;;;;;6.95;3.45;;;;;;;24.78;67.83;99574.13;4896049;29;20039;-80
2023/10/05 08:42:06;;;;;;;7.88;3.85;;;;;;;25.07;67.69;99570.75;4892085;29;20107;-81
2023/10/05 08:44:50;;;;;;;5.75;3.28;;;;;;;24.71;67.78;99557.47;4893239;29;20078;-81
2023/10/05 08:47:36;;;;;;;5.10;3.03;;;;;;;24.48;67.40;99532.91;4902536;29;20043;-81
2023/10/05 08:50:22;;;;;;;7.65;3.83;;;;;;;24.78;67.88;99579.50;4904609;29;20066;-81
2023/10/05 08:53:12;;;;;;;5.75;3.25;;;;;;;25.03;67.22;99586.59;4887917;29;20047;-81
2023/10/05 08:55:59;;;;;;;6.13;2.83;;;;;;;25.19;66.27;99584.66;4889924;29;20060;-79
2023/10/05 08:58:46;;;;;;;6.93;2.97;;;;;;;25.05;66.41;99587.13;4905298;29;20546;-79
2023/10/05 09:01:33;;;;;;;5.45;2.53;;;;;;;25.23;66.59;99600.97;4888498;29;20043;-80
2023/10/05 09:07:08;;;;;;;6.93;3.42;;;;;;;24.74;67.12;99591.81;4904681;29;20043;-80
2023/10/05 09:09:56;;;;;;;5.13;3.00;;;;;;;25.59;66.15;99602.66;4906217;29;20103;-79
2023/10/05 09:12:46;;;;;;;7.65;4.20;;;;;;;25.32;66.41;99606.56;4889727;29;20042;-80
2023/10/05 09:15:34;;;;;;;8.27;4.78;;;;;;;25.17;66.39;99594.88;4903810;29;20509;-80
2023/10/05 09:18:18;;;;;;;9.85;5.13;;;;;;;25.64;65.91;99611.47;4902235;29;20060;-79
2023/10/05 09:21:03;;;;;;;9.52;5.25;;;;;;;24.97;66.72;99619.16;4903615;29;20360;-79
2023/10/05 09:23:48;;;;;;;7.50;3.95;;;;;;;25.84;65.02;99617.75;4903430;29;20091;-78
2023/10/05 09:26:38;;;;;;;9.57;5.07;;;;;;;26.25;64.58;99623.88;4908529;29;20038;-80
2023/10/05 09:29:28;;;;;;;9.15;3.80;;;;;;;26.05;64.23;99618.38;4892823;29;20039;-81
2023/10/05 09:32:25;;;;;;;9.48;3.35;;;;;;;26.31;63.73;99636.97;4903948;29;20419;-80
2023/10/05 09:35:26;;;;;;;10.40;3.63;;;;;;;26.30;64.36;99631.91;4909818;29;20051;-78
2023/10/05 09:38:21;;;;;;;8.23;3.75;;;;;;;26.38;63.84;99621.31;4903340;29;20069;-78
2023/10/05 09:41:08;;;;;;;7.68;3.85;;;;;;;26.65;63.50;99617.22;4909190;29;20043;-79
2023/10/05 09:44:00;;;;;;;6.13;3.00;;;;;;;26.15;64.08;99630.94;4889906;29;20060;-79
2023/10/05 09:46:49;;;;;;;8.43;2.90;;;;;;;26.73;62.69;99623.09;4895559;29;20073;-80
2023/10/05 09:49:34;;;;;;;6.18;2.97;;;;;;;26.85;62.72;99620.78;4891968;29;20052;-80
2023/10/05 09:52:23;;;;;;;6.22;3.13;;;;;;;26.55;63.04;99609.28;4902484;29;20185;-79
2023/10/05 09:55:08;;;;;;;5.43;2.55;;;;;;;26.75;62.51;99610.91;4905711;29;20072;-79
2023/10/05 09:57:56;;;;;;;12.23;3.08;;;;;;;27.22;62.23;99629.97;4907559;29;20403;-81
2023/10/05 10:03:24;;;;;;;6.65;3.03;;;;;;;27.04;62.49;99611.91;4908281;29;20407;-79
2023/10/05 10:06:09;;;;;;;8.50;2.95;;;;;;;27.35;62.04;99614.19;4901325;29;20032;-80
2023/10/05 10:09:07;;;;;;;5.68;2.75;;;;;;;27.48;62.17;99615.31;4901980;29;20407;-79
2023/10/05 10:11:51;;;;;;;7.20;2.58;;;;;;;27.45;61.26;99616.69;4907621;29;20166;-79
2023/10/05 10:14:35;;;;;;;6.97;2.83;;;;;;;27.11;62.07;99623.13;4906160;29;20075;-78
2023/10/05 10:17:27;;;;;;;7.15;2.90;;;;;;;26.87;62.24;99628.59;4892348;29;20186;-80
2023/10/05 10:20:34;;;;;;;9.10;3.05;;;;;;;27.01;61.95;99634.06;4885941;29;20107;-79
2023/10/05 10:23:22;;;;;;;8.52;2.97;;;;;;;26.80;61.29;99635.06;4906178;29;20161;-79
2023/10/05 10:26:20;;;;;;;6.93;2.60;;;;;;;26.67;61.29;99631.19;4905827;29;20116;-79
2023/10/05 10:29:10;;;;;;;7.20;3.03;;;;;;;26.81;61.19;99641.28;4890082;29;20100;-80
2023/10/05 10:32:19;;;;;;;9.35;2.70;;;;;;;26.23;61.15;99640.31;4907026;29;20141;-79
2023/10/05 10:35:26;;;;;;;8.15;3.08;;;;;;;25.89;60.75;99627.66;4903516;29;20067;-78
2023/10/05 10:38:17;;;;;;;10.32;2.88;;;;;;;26.12;60.47;99622.63;4905303;29;20396;-79
2023/10/05 10:41:07;;;;;;;5.78;3.08;;;;;;;26.07;61.24;99629.66;4888991;29;20083;-78
2023/10/05 10:43:55;;;;;;;7.18;2.83;;;;;;;25.36;60.85;99637.97;4894882;29;20398;-78
2023/10/05 10:46:39;;;;;;;10.20;2.80;;;;;;;26.13;60.31;99637.66;4910056;29;20541;-77
2023/10/05 10:49:23;;;;;;;14.07;3.30;;;;;;;26.37;60.48;99632.34;4907019;29;20051;-84
2023/10/05 10:52:10;;;;;;;10.35;2.90;;;;;;;26.87;59.24;99618.59;4895937;29;20059;-85
2023/10/05 10:54:57;;;;;;;9.13;2.83;;;;;;;26.31;60.20;99639.66;4896706;29;20155;-85
2023/10/05 10:57:44;;;;;;;6.88;2.30;;;;;;;27.01;58.58;99618.69;4910618;29;20515;-86
2023/10/05 11:03:26;;;;;;;4.88;2.15;;;;;;;26.78;58.54;99626.50;4899336;29;20048;-84
2023/10/05 11:06:11;;;;;;;5.80;2.60;;;;;;;26.63;59.34;99602.47;4909318;29;20517;-86
2023/10/05 11:08:59;;;;;;;6.85;3.33;;;;;;;26.08;59.64;99620.50;4893208;29;20056;-85
2023/10/05 11:11:44;;;;;;;7.68;3.85;;;;;;;26.15;59.90;99597.88;4910396;29;20133;-86
2023/10/05 11:14:32;;;;;;;11.90;6.65;;;;;;;26.03;59.95;99608.97;4899605;29;20051;-85
2023/10/05 11:17:23;;;;;;;8.40;6.32;;;;;;;26.52;59.93;99613.34;4905883;29;20056;-85
2023/10/05 11:20:17;;;;;;;5.43;3.50;;;;;;;26.25;59.88;99602.38;4919055;29;20474;-86
2023/10/05 11:23:03;;;;;;;12.00;2.80;;;;;;;25.84;60.52;99598.94;4911728;29;20407;-86
2023/10/05 11:25:47;;;;;;;10.20;5.55;;;;;;;26.00;60.60;99602.31;4905830;29;20048;-85
2023/10/05 11:28:32;;;;;;;6.03;3.20;;;;;;;25.63;61.08;99598.31;4903575;29;20578;-86
2023/10/05 11:31:21;;;;;;;;;;;;;;;26.01;60.43;99597.72;4907489;29;20127;-85
2023/10/05 11:34:09;;;;;;;12.02;5.20;;;;;;;26.16;60.43;99594.09;4907140;29;20341;-84
2023/10/05 11:36:58;;;;;;;5.75;2.72;;;;;;;26.12;60.41;99583.09;4911869;29;20538;-86
2023/10/05 11:39:49;;;;;;;7.07;3.50;;;;;;;26.08;60.28;99582.84;4911713;29;20075;-85
2023/10/05 11:42:41;;;;;;;7.25;2.63;;;;;;;26.25;60.27;99584.31;4902178;29;20190;-85
2023/10/05 11:45:25;;;;;;;9.48;2.60;;;;;;;26.07;59.84;99581.25;4891967;29;20111;-85
2023/10/05 11:48:12;;;;;;;6.40;2.70;;;;;;;26.15;60.07;99577.13;4905610;29;20084;-85
2023/10/05 11:50:57;;;;;;;11.38;2.83;;;;;;;25.78;60.90;99590.13;4894442;29;20052;-86
2023/10/05 11:53:43;;;;;;;7.45;2.85;;;;;;;25.89;60.79;99584.66;4901495;29;20127;-87
2023/10/05 11:56:30;;;;;;;6.30;2.58;;;;;;;26.00;60.80;99591.53;4906025;29;20108;-86
2023/10/05 11:59:26;;;;;;;8.13;3.30;;;;;;;25.45;61.76;99580.94;4888880;29;20789;-88
2023/10/05 12:02:11;;;;;;;7.78;3.25;;;;;;;25.48;62.10;99567.78;4892390;29;20047;-88
2023/10/05 12:04:56;;;;;;;4.57;2.58;;;;;;;25.57;62.66;99567.19;4891074;29;20097;-88
2023/10/05 12:07:45;;;;;;;6.53;3.08;;;;;;;25.46;62.55;99539.59;4902027;29;20096;-85
2023/10/05 12:10:31;;;;;;;6.43;2.75;;;;;;;25.74;63.04;99547.97;4906230;29;20080;-85
2023/10/05 12:13:15;;;;;;;5.68;2.80;;;;;;;26.06;62.99;99541.97;4905098;29;20072;-84
2023/10/05 12:15:59;;;;;;;6.60;2.83;;;;;;;25.76;63.18;99551.16;4894674;29;20510;-84
2023/10/05 12:18:43;;;;;;;8.43;2.72;;;;;;;26.02;63.20;99567.84;4894864;29;20043;-83
2023/10/05 12:21:27;;;;;;;5.65;2.72;;;;;;;25.64;63.25;99571.16;4902909;29;20410;-83
2023/10/05 12:24:12;;;;;;;8.50;3.03;;;;;;;26.12;63.11;99571.50;4908896;29;20080;-84
2023/10/05 12:27:04;;;;;;;7.50;2.92;;;;;;;25.74;62.79;99556.81;4906835;29;20043;-83
2023/10/05 12:29:48;;;;;;;3.72;2.30;;;;;;;26.49;62.30;99524.28;4906190;29;20423;-84
2023/10/05 12:32:33;;;;;;;6.28;2.65;;;;;;;26.53;61.91;99525.34;4897126;29;20127;-84
2023/10/05 12:35:18;;;;;;;6.85;2.40;;;;;;;26.66;61.94;99516.50;4904518;29;20141;-85
2023/10/05 12:38:06;;;;;;;5.38;2.63;;;;;;;27.13;60.79;99505.09;4889639;29;20081;-82
2023/10/05 12:40:51;;;;;;;4.57;2.83;;;;;;;26.92;60.83;99501.91;4906520;29;21117;-86
2023/10/05 12:43:35;;;;;;;6.82;2.72;;;;;;;27.35;60.55;99488.28;4891274;29;20060;-84
2023/10/05 12:46:24;;;;;;;7.40;2.80;;;;;;;27.01;60.85;99488.59;4906137;29;20051;-86
2023/10/05 12:49:09;;;;;;;5.82;2.58;;;;;;;26.98;61.11;99483.78;4905256;29;20046;-85
2023/10/05 12:51:53;;;;;;;5.60;2.17;;;;;;;27.04;60.75;99477.22;4908334;29;20067;-83
2023/10/05 12:54:42;;;;;;;3.05;2.15;;;;;;;27.44;60.53;99488.41;4892507;29;20060;-84
2023/10/05 12:57:26;;;;;;;6.05;2.20;;;;;;;27.05;59.96;99476.13;4893647;29;20439;-84
2023/10/05 13:00:19;;;;;;;3.80;2.20;;;;;;;27.58;59.94;99474.19;4894287;29;20043;-86
2023/10/05 13:03:05;;;;;;;4.88;2.30;;;;;;;27.90;59.29;99488.66;4905461;29;20071;-85
2023/10/05 13:05:51;;;;;;;5.05;2.20;;;;;;;27.47;59.79;99476.25;4912460;29;20131;-84
2023/10/05 13:08:35;;;;;;;5.30;2.50;;;;;;;27.53;59.60;99452.72;4908122;29;20403;-85
2023/10/05 13:11:19;;;;;;;5.57;2.30;;;;;;;27.50;59.88;99468.34;4889723;29;20529;-85
2023/10/05 13:14:08;;;;;;;4.65;2.28;;;;;;;27.69;59.32;99456.69;4887610;29;20074;-85
2023/10/05 13:16:54;;;;;;;3.17;2.30;;;;;;;27.86;59.54;99471.50;4890535;29;20107;-85
2023/10/05 13:19:38;;;;;;;2.97;2.33;;;;;;;28.11;59.15;99464.00;4891056;29;20059;-85
2023/10/05 13:22:25;;;;;;;5.07;2.50;;;;;;;27.85;59.21;99472.59;4884389;29;20132;-84
2023/10/05 13:25:09;;;;;;;5.32;2.67;;;;;;;27.99;58.86;99481.50;4890137;29;20048;-85
2023/10/05 13:27:55;;;;;;;5.55;2.45;;;;;;;27.62;59.02;99473.31;4885837;29;20035;-85